createdAt,value
2022-09-26T00:01:44.262Z,3.93
2022-09-26T00:04:23.734Z,3.42
2022-09-26T00:07:24.868Z,2.65
2022-09-26T00:09:55.543Z,2.85
2022-09-26T00:12:22.903Z,2.20
2022-09-26T00:14:50.263Z,2.50
2022-09-26T00:17:17.650Z,7.43
2022-09-26T00:19:45.088Z,1.58
2022-09-26T00:22:12.589Z,3.35
2022-09-26T00:24:39.963Z,1.80
2022-09-26T00:27:07.310Z,4.45
2022-09-26T00:29:34.776Z,2.03
2022-09-26T00:32:02.227Z,1.75
2022-09-26T00:34:29.587Z,2.53
2022-09-26T00:36:56.959Z,3.38
2022-09-26T00:39:24.996Z,2.40
2022-09-26T00:41:53.939Z,3.03
2022-09-26T00:44:47.920Z,1.80
2022-09-26T00:47:44.774Z,6.07
2022-09-26T00:50:20.219Z,4.38
2022-09-26T00:53:08.101Z,2.47
2022-09-26T00:55:40.005Z,2.67
2022-09-26T00:58:12.496Z,2.67
2022-09-26T01:00:42.522Z,2.85
2022-09-26T01:03:10.496Z,3.10
2022-09-26T01:05:41.469Z,5.47
2022-09-26T01:08:55.658Z,2.80
2022-09-26T01:11:25.788Z,5.35
2022-09-26T01:13:54.463Z,2.75
2022-09-26T01:16:21.983Z,3.65
2022-09-26T01:18:50.571Z,2.45
2022-09-26T01:21:52.778Z,3.70
2022-09-26T01:24:58.794Z,4.18
2022-09-26T01:27:46.921Z,3.25
2022-09-26T01:30:26.438Z,4.13
2022-09-26T01:33:07.515Z,3.30
2022-09-26T01:35:34.805Z,2.95
2022-09-26T01:38:23.341Z,4.75
2022-09-26T01:41:24.469Z,3.42
2022-09-26T01:44:16.158Z,5.03
2022-09-26T01:47:08.093Z,4.63
2022-09-26T01:49:41.074Z,3.17
2022-09-26T01:52:21.814Z,2.55
2022-09-26T01:55:07.098Z,2.47
2022-09-26T01:57:41.177Z,3.67
2022-09-26T02:00:12.553Z,2.75
2022-09-26T02:02:47.521Z,2.45
2022-09-26T02:05:17.692Z,5.25
2022-09-26T02:07:56.034Z,6.20
2022-09-26T02:10:30.706Z,3.33
2022-09-26T02:13:21.891Z,2.80
2022-09-26T02:15:56.074Z,2.30
2022-09-26T02:18:37.527Z,3.97
2022-09-26T02:21:20.737Z,2.92
2022-09-26T02:23:49.450Z,4.65
2022-09-26T02:26:17.390Z,3.45
2022-09-26T02:28:45.352Z,3.55
2022-09-26T02:31:22.987Z,2.92
2022-09-26T02:33:52.274Z,3.78
2022-09-26T02:36:23.103Z,4.00
2022-09-26T02:38:50.594Z,3.60
2022-09-26T02:42:00.611Z,2.35
2022-09-26T02:44:54.103Z,4.97
2022-09-26T02:48:06.332Z,3.08
2022-09-26T02:51:12.067Z,3.00
2022-09-26T02:54:02.706Z,3.50
2022-09-26T02:56:46.063Z,2.30
2022-09-26T02:59:59.607Z,3.05
2022-09-26T03:02:38.816Z,2.50
2022-09-26T03:05:27.572Z,2.80
2022-09-26T03:08:02.995Z,3.13
2022-09-26T03:10:32.143Z,4.68
2022-09-26T03:13:13.238Z,4.15
2022-09-26T03:15:45.160Z,7.57
2022-09-26T03:18:20.734Z,2.97
2022-09-26T03:20:48.913Z,4.30
2022-09-26T03:23:17.208Z,7.18
2022-09-26T03:25:44.976Z,4.18
2022-09-26T03:28:16.269Z,3.97
2022-09-26T03:30:46.201Z,5.28
2022-09-26T03:33:32.135Z,3.90
2022-09-26T03:36:00.446Z,3.65
2022-09-26T03:38:34.227Z,3.42
2022-09-26T03:41:10.252Z,4.07
2022-09-26T03:43:57.928Z,4.72
2022-09-26T03:46:37.570Z,4.35
2022-09-26T03:49:07.272Z,4.65
2022-09-26T03:51:40.473Z,5.45
2022-09-26T03:54:07.939Z,4.68
2022-09-26T03:56:35.340Z,4.78
2022-09-26T03:59:02.884Z,5.00
2022-09-26T04:01:30.701Z,8.70
2022-09-26T04:03:58.136Z,3.08
2022-09-26T04:06:25.830Z,5.30
2022-09-26T04:08:59.897Z,4.72
2022-09-26T04:11:28.117Z,5.55
2022-09-26T04:13:56.549Z,4.80
2022-09-26T04:16:29.526Z,4.22
2022-09-26T04:19:03.395Z,5.68
2022-09-26T04:21:31.746Z,4.50
2022-09-26T04:24:00.095Z,5.32
2022-09-26T04:26:28.237Z,5.03
2022-09-26T04:28:57.426Z,4.57
2022-09-26T04:31:42.197Z,5.30
2022-09-26T04:34:14.894Z,5.13
2022-09-26T04:36:52.343Z,5.70
2022-09-26T04:39:21.513Z,3.53
2022-09-26T04:41:49.306Z,5.88
2022-09-26T04:44:19.307Z,5.95
2022-09-26T04:46:47.958Z,4.60
2022-09-26T04:49:16.205Z,3.25
2022-09-26T04:51:50.262Z,4.13
2022-09-26T04:54:20.358Z,3.70
2022-09-26T04:56:47.842Z,5.00
2022-09-26T04:59:20.272Z,3.83
2022-09-26T05:02:08.440Z,4.53
2022-09-26T05:04:44.177Z,5.15
2022-09-26T05:07:47.159Z,3.67
2022-09-26T05:10:17.278Z,5.60
2022-09-26T05:13:00.745Z,4.82
2022-09-26T05:15:30.985Z,3.88
2022-09-26T05:18:00.033Z,3.90
2022-09-26T05:23:17.571Z,3.30
2022-09-26T05:26:15.067Z,5.55
2022-09-26T05:28:42.667Z,3.78
2022-09-26T05:31:10.443Z,3.38
2022-09-26T05:34:08.119Z,4.18
2022-09-26T05:37:23.272Z,6.20
2022-09-26T05:40:30.765Z,4.40
2022-09-26T05:43:31.575Z,4.05
2022-09-26T05:46:46.127Z,3.70
2022-09-26T05:52:49.620Z,3.28
2022-09-26T05:55:24.075Z,2.30
2022-09-26T05:58:25.412Z,3.92
2022-09-26T06:01:21.937Z,3.10
2022-09-26T06:04:02.811Z,2.72
2022-09-26T06:06:36.902Z,2.40
2022-09-26T06:09:27.293Z,2.30
2022-09-26T06:12:21.288Z,2.42
2022-09-26T06:14:53.814Z,3.20
2022-09-26T06:17:27.187Z,6.22
2022-09-26T06:19:54.616Z,6.47
2022-09-26T06:22:22.320Z,5.13
2022-09-26T06:24:49.921Z,2.55
2022-09-26T06:27:17.721Z,3.38
2022-09-26T06:29:46.408Z,2.35
2022-09-26T06:32:17.209Z,3.97
2022-09-26T06:35:05.240Z,3.17
2022-09-26T06:37:45.829Z,3.70
2022-09-26T06:40:14.142Z,4.32
2022-09-26T06:42:46.784Z,3.75
2022-09-26T06:45:24.631Z,3.67
2022-09-26T06:48:22.314Z,3.85
2022-09-26T06:51:00.460Z,3.08
2022-09-26T06:53:30.760Z,3.95
2022-09-26T06:55:59.574Z,4.63
2022-09-26T06:58:27.860Z,4.90
2022-09-26T07:01:06.749Z,6.78
2022-09-26T07:03:54.344Z,5.55
2022-09-26T07:06:54.541Z,4.43
2022-09-26T07:09:21.929Z,5.95
2022-09-26T07:12:15.297Z,6.50
2022-09-26T07:14:43.557Z,4.93
2022-09-26T07:17:31.258Z,7.55
2022-09-26T07:20:29.014Z,6.72
2022-09-26T07:23:28.506Z,5.20
2022-09-26T07:25:58.833Z,8.57
2022-09-26T07:28:27.807Z,6.05
2022-09-26T07:30:57.099Z,8.05
2022-09-26T07:33:52.811Z,4.22
2022-09-26T07:36:20.970Z,7.20
2022-09-26T07:38:50.103Z,5.95
2022-09-26T07:41:23.845Z,5.07
2022-09-26T07:46:58.199Z,7.50
2022-09-26T07:50:11.787Z,6.35
2022-09-26T07:53:12.607Z,6.75
2022-09-26T07:56:10.544Z,6.10
2022-09-26T08:00:54.627Z,7.90
2022-09-26T08:03:58.131Z,7.22
2022-09-26T08:06:50.287Z,7.82
2022-09-26T08:24:57.009Z,10.13
2022-09-26T08:28:00.168Z,5.43
2022-09-26T08:30:31.249Z,15.25
2022-09-26T08:33:08.019Z,5.22
2022-09-26T08:35:41.370Z,6.78
2022-09-26T08:38:50.187Z,6.65
2022-09-26T08:42:06.223Z,7.40
2022-09-26T08:45:32.702Z,4.85
2022-09-26T08:49:01.944Z,6.18
2022-09-26T08:52:21.241Z,8.27
2022-09-26T08:55:04.512Z,5.30
2022-09-26T09:02:42.583Z,4.72
2022-09-26T09:09:02.340Z,3.10
2022-09-26T09:25:56.083Z,3.40
2022-09-26T09:43:59.958Z,2.28
2022-09-26T09:57:14.560Z,3.35
2022-09-26T10:00:51.023Z,2.72
2022-09-26T10:11:26.669Z,2.95
2022-09-26T10:14:56.415Z,2.50
2022-09-26T10:39:18.647Z,2.20
2022-09-26T10:48:55.182Z,1.90
2022-09-26T10:52:29.826Z,2.03
2022-09-26T10:55:57.536Z,2.17
2022-09-26T11:06:50.915Z,1.33
2022-09-26T11:09:47.006Z,1.98
2022-09-26T11:12:41.499Z,3.83
2022-09-26T11:15:14.771Z,2.92
2022-09-26T11:17:50.919Z,1.25
2022-09-26T11:20:41.001Z,1.65
2022-09-26T11:23:33.704Z,1.95
2022-09-26T11:26:59.617Z,1.00
2022-09-26T11:30:11.761Z,1.67
2022-09-26T11:32:58.608Z,1.40
2022-09-26T11:39:25.168Z,3.42
2022-09-26T11:42:15.029Z,2.67
2022-09-26T11:49:01.964Z,2.22
2022-09-26T12:00:01.681Z,1.20
2022-09-26T12:11:15.433Z,1.50
2022-09-26T12:15:02.761Z,1.35
2022-09-26T12:30:12.870Z,1.58
2022-09-26T12:33:10.438Z,2.50
2022-09-26T12:35:55.851Z,1.17
2022-09-26T12:42:28.838Z,1.38
2022-09-26T12:48:21.426Z,1.45
2022-09-26T12:51:25.106Z,1.35
2022-09-26T12:54:33.210Z,1.77
2022-09-26T12:58:02.062Z,1.40
2022-09-26T13:01:12.088Z,2.95
2022-09-26T13:09:38.204Z,2.67
2022-09-26T13:12:32.885Z,1.92
2022-09-26T13:16:34.506Z,1.75
2022-09-26T13:19:40.952Z,1.52
2022-09-26T13:22:48.944Z,2.95
2022-09-26T13:26:51.932Z,1.70
2022-09-26T13:39:04.887Z,1.50
2022-09-26T13:43:30.169Z,2.05
2022-09-26T13:46:15.959Z,1.90
2022-09-26T13:49:42.910Z,2.33
2022-09-26T14:00:31.355Z,1.63
2022-09-26T14:12:03.377Z,2.88
2022-09-26T14:35:54.850Z,1.90
2022-09-26T14:38:28.494Z,1.75
2022-09-26T14:47:09.929Z,1.88
2022-09-26T14:48:49.631Z,1.83
2022-09-26T14:52:19.413Z,2.67
2022-09-26T14:54:49.425Z,3.70
2022-09-26T14:57:28.771Z,1.52
2022-09-26T14:59:57.642Z,2.42
2022-09-26T15:02:41.660Z,1.35
2022-09-26T15:05:28.130Z,1.52
2022-09-26T15:07:55.765Z,1.35
2022-09-26T15:10:24.714Z,2.08
2022-09-26T15:13:21.406Z,1.52
2022-09-26T15:15:48.916Z,1.38
2022-09-26T15:18:19.130Z,1.30
2022-09-26T15:20:51.902Z,1.20
2022-09-26T15:23:27.619Z,1.42
2022-09-26T15:26:00.078Z,0.98
2022-09-26T15:28:27.582Z,1.70
2022-09-26T15:31:20.468Z,1.40
2022-09-26T15:34:04.217Z,2.75
2022-09-26T15:36:54.715Z,1.55
2022-09-26T15:39:36.760Z,0.88
2022-09-26T15:42:47.643Z,1.27
2022-09-26T15:45:46.137Z,2.40
2022-09-26T15:48:19.915Z,1.77
2022-09-26T15:50:56.441Z,0.88
2022-09-26T15:53:33.708Z,2.35
2022-09-26T15:56:10.012Z,1.02
2022-09-26T15:58:44.080Z,0.85
2022-09-26T16:01:20.715Z,1.20
2022-09-26T16:04:05.719Z,0.82
2022-09-26T16:08:24.475Z,1.90
2022-09-26T16:12:31.264Z,1.23
2022-09-26T16:15:20.828Z,1.58
2022-09-26T16:18:14.933Z,0.98
2022-09-26T16:49:16.146Z,1.67
2022-09-26T16:52:36.481Z,2.10
2022-09-26T16:55:26.133Z,2.25
2022-09-26T16:58:26.181Z,1.00
2022-09-26T17:01:41.266Z,1.42
2022-09-26T17:04:30.433Z,0.85
2022-09-26T17:07:16.139Z,1.00
2022-09-26T17:10:35.678Z,1.08
2022-09-26T17:13:54.639Z,2.60
2022-09-26T17:16:42.261Z,0.90
2022-09-26T17:19:37.606Z,0.98
2022-09-26T17:22:31.395Z,0.80
2022-09-26T17:25:48.483Z,1.63
2022-09-26T17:32:29.219Z,3.80
2022-09-26T17:35:50.646Z,1.20
2022-09-26T17:39:54.287Z,3.20
2022-09-26T17:43:20.686Z,0.90
2022-09-26T17:57:12.679Z,0.82
2022-09-26T18:00:30.611Z,1.58
2022-09-26T18:03:46.368Z,1.50
2022-09-26T18:17:33.275Z,6.05
2022-09-26T18:33:54.652Z,1.50
2022-09-26T18:36:23.512Z,2.78
2022-09-26T18:38:52.037Z,2.05
2022-09-26T18:41:26.072Z,2.95
2022-09-26T18:43:57.737Z,1.85
2022-09-26T18:46:26.190Z,4.30
2022-09-26T18:49:06.266Z,2.00
2022-09-26T18:51:40.284Z,2.92
2022-09-26T18:57:46.685Z,2.00
2022-09-26T19:00:14.838Z,2.22
2022-09-26T19:02:43.177Z,2.25
2022-09-26T19:06:04.497Z,1.98
2022-09-26T19:23:39.677Z,2.28
2022-09-26T19:35:43.594Z,4.95
2022-09-26T19:55:53.870Z,2.20
2022-09-26T20:03:03.946Z,2.58
2022-09-26T20:06:54.998Z,2.40
2022-09-26T20:10:25.925Z,3.38
2022-09-26T20:13:22.621Z,3.42
2022-09-26T20:15:51.172Z,3.58
2022-09-26T20:18:26.230Z,3.08
2022-09-26T20:21:02.411Z,2.50
2022-09-26T20:23:46.243Z,3.42
2022-09-26T20:26:37.318Z,3.65
2022-09-26T20:29:16.439Z,3.92
2022-09-26T20:31:50.351Z,4.05
2022-09-26T20:34:22.087Z,3.40
2022-09-26T20:37:01.210Z,2.25
2022-09-26T20:40:23.791Z,2.40
2022-09-26T20:46:47.635Z,2.95
2022-09-26T20:49:39.959Z,2.92
2022-09-26T20:53:18.272Z,2.13
2022-09-26T20:56:58.838Z,3.28
2022-09-26T20:59:57.977Z,2.78
2022-09-26T21:03:00.736Z,3.08
2022-09-26T21:05:53.177Z,3.47
2022-09-26T21:09:14.982Z,2.72
2022-09-26T21:12:08.154Z,2.50
2022-09-26T21:18:07.376Z,2.88
2022-09-26T21:21:08.615Z,3.72
2022-09-26T21:24:04.908Z,3.03
2022-09-26T21:27:09.168Z,4.22
2022-09-26T21:30:27.904Z,3.45
2022-09-26T21:33:15.981Z,2.88
2022-09-26T21:36:52.533Z,3.88
2022-09-26T21:39:30.014Z,3.03
2022-09-26T21:42:28.155Z,2.17
2022-09-26T21:46:17.541Z,1.70
2022-09-26T21:54:02.001Z,2.55
2022-09-26T21:58:04.180Z,2.63
2022-09-26T22:01:22.102Z,2.95
2022-09-26T22:13:07.019Z,2.75
2022-09-26T22:15:44.909Z,2.08
2022-09-26T22:21:21.293Z,2.17
2022-09-26T22:23:58.917Z,2.13
2022-09-26T22:26:42.013Z,2.17
2022-09-26T22:29:50.154Z,1.27
2022-09-26T22:35:57.518Z,1.25
2022-09-26T22:39:20.549Z,1.52
2022-09-26T22:41:55.866Z,1.23
2022-09-26T22:44:31.483Z,2.05
2022-09-26T22:47:48.373Z,1.40
2022-09-26T22:50:18.375Z,2.00
2022-09-26T22:52:49.774Z,2.05
2022-09-26T22:55:22.899Z,4.82
2022-09-26T22:57:51.686Z,2.20
2022-09-26T23:00:23.415Z,1.60
2022-09-26T23:02:53.402Z,5.13
2022-09-26T23:05:41.342Z,1.63
2022-09-26T23:08:22.027Z,3.28
2022-09-26T23:11:00.208Z,2.33
2022-09-26T23:13:33.454Z,3.10
2022-09-26T23:16:28.294Z,2.53
2022-09-26T23:18:59.055Z,2.10
2022-09-26T23:21:39.739Z,2.75
2022-09-26T23:24:12.786Z,5.18
2022-09-26T23:26:42.959Z,2.05
2022-09-26T23:29:10.835Z,4.55
2022-09-26T23:31:38.460Z,2.03
2022-09-26T23:34:06.224Z,4.45
2022-09-26T23:36:55.396Z,1.92
2022-09-26T23:44:50.076Z,2.45
2022-09-26T23:47:24.765Z,2.67
2022-09-26T23:50:02.037Z,2.22
2022-09-26T23:52:52.059Z,2.40
2022-09-26T23:55:38.397Z,3.05
2022-09-26T23:58:19.700Z,2.80
